sensor_id;sensor_type;location;lat;lon;timestamp;temperature;humidity
52555;DHT22;38455;52.710;6.502;2023-03-01T00:01:17;-0.40;99.90
52555;DHT22;38455;52.710;6.502;2023-03-01T00:03:43;-0.40;99.90
52555;DHT22;38455;52.710;6.502;2023-03-01T00:06:09;-0.40;99.90
52555;DHT22;38455;52.710;6.502;2023-03-01T00:08:35;-0.50;99.90
52555;DHT22;38455;52.710;6.502;2023-03-01T00:13:29;-0.50;99.90
52555;DHT22;38455;52.710;6.502;2023-03-01T00:15:55;-0.50;99.90
52555;DHT22;38455;52.710;6.502;2023-03-01T00:18:21;-0.40;99.90
52555;DHT22;38455;52.710;6.502;2023-03-01T00:20:52;-0.50;99.90
52555;DHT22;38455;52.710;6.502;2023-03-01T00:23:18;-0.50;99.90
52555;DHT22;38455;52.710;6.502;2023-03-01T00:25:44;-0.50;99.90
52555;DHT22;38455;52.710;6.502;2023-03-01T00:28:10;-0.60;99.90
52555;DHT22;38455;52.710;6.502;2023-03-01T00:30:36;-0.60;99.90
52555;DHT22;38455;52.710;6.502;2023-03-01T00:33:02;-0.70;99.90
52555;DHT22;38455;52.710;6.502;2023-03-01T00:35:28;-0.70;99.90
52555;DHT22;38455;52.710;6.502;2023-03-01T00:37:53;-0.70;99.90
52555;DHT22;38455;52.710;6.502;2023-03-01T00:40:30;-0.70;99.90
52555;DHT22;38455;52.710;6.502;2023-03-01T00:42:57;-0.60;99.90
52555;DHT22;38455;52.710;6.502;2023-03-01T00:45:23;-0.60;99.90
52555;DHT22;38455;52.710;6.502;2023-03-01T00:47:50;-0.60;99.90
52555;DHT22;38455;52.710;6.502;2023-03-01T00:50:17;-0.80;99.90
52555;DHT22;38455;52.710;6.502;2023-03-01T00:52:43;-0.70;99.90
52555;DHT22;38455;52.710;6.502;2023-03-01T00:55:09;-0.70;99.90
52555;DHT22;38455;52.710;6.502;2023-03-01T00:57:35;-0.70;99.90
52555;DHT22;38455;52.710;6.502;2023-03-01T01:00:01;-0.80;99.90
52555;DHT22;38455;52.710;6.502;2023-03-01T01:02:26;-0.70;99.90
52555;DHT22;38455;52.710;6.502;2023-03-01T01:04:52;-0.80;99.90
52555;DHT22;38455;52.710;6.502;2023-03-01T01:07:18;-0.90;99.90
52555;DHT22;38455;52.710;6.502;2023-03-01T01:09:46;-0.90;99.90
52555;DHT22;38455;52.710;6.502;2023-03-01T01:12:11;-1.00;99.90
52555;DHT22;38455;52.710;6.502;2023-03-01T01:14:37;-0.90;99.90
52555;DHT22;38455;52.710;6.502;2023-03-01T01:17:03;-1.00;99.90
52555;DHT22;38455;52.710;6.502;2023-03-01T01:19:29;-1.00;99.90
52555;DHT22;38455;52.710;6.502;2023-03-01T01:21:55;-1.00;99.90
52555;DHT22;38455;52.710;6.502;2023-03-01T01:24:20;-1.00;99.90
52555;DHT22;38455;52.710;6.502;2023-03-01T01:26:46;-1.00;99.90
52555;DHT22;38455;52.710;6.502;2023-03-01T01:29:12;-1.00;99.90
52555;DHT22;38455;52.710;6.502;2023-03-01T01:31:40;-1.00;99.90
52555;DHT22;38455;52.710;6.502;2023-03-01T01:34:08;-1.00;99.90
52555;DHT22;38455;52.710;6.502;2023-03-01T01:36:37;-1.00;99.90
52555;DHT22;38455;52.710;6.502;2023-03-01T01:39:02;-1.10;99.90
52555;DHT22;38455;52.710;6.502;2023-03-01T01:41:29;-1.10;99.90
52555;DHT22;38455;52.710;6.502;2023-03-01T01:47:07;-1.20;99.90
52555;DHT22;38455;52.710;6.502;2023-03-01T01:49:54;-1.30;99.90
52555;DHT22;38455;52.710;6.502;2023-03-01T01:52:26;-1.30;99.90
52555;DHT22;38455;52.710;6.502;2023-03-01T01:57:43;-1.30;99.90
52555;DHT22;38455;52.710;6.502;2023-03-01T02:00:17;-1.40;99.90
52555;DHT22;38455;52.710;6.502;2023-03-01T02:02:44;-1.40;99.90
52555;DHT22;38455;52.710;6.502;2023-03-01T02:07:59;-1.40;99.90
52555;DHT22;38455;52.710;6.502;2023-03-01T02:10:25;-1.40;99.90
52555;DHT22;38455;52.710;6.502;2023-03-01T02:12:52;-1.40;99.90
52555;DHT22;38455;52.710;6.502;2023-03-01T02:15:18;-1.40;99.90
52555;DHT22;38455;52.710;6.502;2023-03-01T02:17:44;-1.50;99.90
52555;DHT22;38455;52.710;6.502;2023-03-01T02:22:52;-1.50;99.90
52555;DHT22;38455;52.710;6.502;2023-03-01T02:25:27;-1.50;99.90
52555;DHT22;38455;52.710;6.502;2023-03-01T02:28:32;-1.50;99.90
52555;DHT22;38455;52.710;6.502;2023-03-01T02:30:59;-1.50;99.90
52555;DHT22;38455;52.710;6.502;2023-03-01T02:33:44;-1.50;99.90
52555;DHT22;38455;52.710;6.502;2023-03-01T02:36:14;-1.40;99.90
52555;DHT22;38455;52.710;6.502;2023-03-01T02:38:41;-1.30;99.90
52555;DHT22;38455;52.710;6.502;2023-03-01T02:41:08;-1.30;99.90
52555;DHT22;38455;52.710;6.502;2023-03-01T02:43:36;-1.20;99.90
52555;DHT22;38455;52.710;6.502;2023-03-01T02:46:05;-1.30;99.90
52555;DHT22;38455;52.710;6.502;2023-03-01T02:48:48;-1.20;99.90
52555;DHT22;38455;52.710;6.502;2023-03-01T02:51:42;-1.30;99.90
52555;DHT22;38455;52.710;6.502;2023-03-01T02:56:45;-1.20;99.90
52555;DHT22;38455;52.710;6.502;2023-03-01T02:59:16;-1.30;99.90
52555;DHT22;38455;52.710;6.502;2023-03-01T03:01:43;-1.30;99.90
52555;DHT22;38455;52.710;6.502;2023-03-01T03:04:11;-1.30;99.90
52555;DHT22;38455;52.710;6.502;2023-03-01T03:06:37;-1.40;99.90
52555;DHT22;38455;52.710;6.502;2023-03-01T03:09:04;-1.40;99.90
52555;DHT22;38455;52.710;6.502;2023-03-01T03:11:30;-1.40;99.90
52555;DHT22;38455;52.710;6.502;2023-03-01T03:13:57;-1.40;99.90
52555;DHT22;38455;52.710;6.502;2023-03-01T03:16:23;-1.40;99.90
52555;DHT22;38455;52.710;6.502;2023-03-01T03:18:50;-1.40;99.90
52555;DHT22;38455;52.710;6.502;2023-03-01T03:21:16;-1.40;99.90
52555;DHT22;38455;52.710;6.502;2023-03-01T03:23:42;-1.30;99.90
52555;DHT22;38455;52.710;6.502;2023-03-01T03:26:08;-1.30;99.90
52555;DHT22;38455;52.710;6.502;2023-03-01T03:28:39;-1.40;99.90
52555;DHT22;38455;52.710;6.502;2023-03-01T03:31:06;-1.40;99.90
52555;DHT22;38455;52.710;6.502;2023-03-01T03:33:32;-1.40;99.90
52555;DHT22;38455;52.710;6.502;2023-03-01T03:35:58;-1.40;99.90
52555;DHT22;38455;52.710;6.502;2023-03-01T03:38:24;-1.50;99.90
52555;DHT22;38455;52.710;6.502;2023-03-01T03:41:04;-1.50;99.90
52555;DHT22;38455;52.710;6.502;2023-03-01T03:43:32;-1.50;99.90
52555;DHT22;38455;52.710;6.502;2023-03-01T03:45:58;-1.60;99.90
52555;DHT22;38455;52.710;6.502;2023-03-01T03:48:24;-1.70;99.90
52555;DHT22;38455;52.710;6.502;2023-03-01T03:50:53;-1.70;99.90
52555;DHT22;38455;52.710;6.502;2023-03-01T03:53:20;-1.80;99.90
52555;DHT22;38455;52.710;6.502;2023-03-01T03:55:46;-1.80;99.90
52555;DHT22;38455;52.710;6.502;2023-03-01T03:58:15;-1.90;99.90
52555;DHT22;38455;52.710;6.502;2023-03-01T04:00:43;-1.80;99.90
52555;DHT22;38455;52.710;6.502;2023-03-01T04:03:11;-1.90;99.90
52555;DHT22;38455;52.710;6.502;2023-03-01T04:05:38;-1.90;99.90
52555;DHT22;38455;52.710;6.502;2023-03-01T04:08:04;-1.90;99.90
52555;DHT22;38455;52.710;6.502;2023-03-01T04:10:41;-1.90;99.90
52555;DHT22;38455;52.710;6.502;2023-03-01T04:13:09;-1.90;99.90
52555;DHT22;38455;52.710;6.502;2023-03-01T04:15:35;-2.00;99.90
52555;DHT22;38455;52.710;6.502;2023-03-01T04:18:01;-2.00;99.90
52555;DHT22;38455;52.710;6.502;2023-03-01T04:20:29;-2.10;99.90
52555;DHT22;38455;52.710;6.502;2023-03-01T04:25:41;-2.10;99.90
52555;DHT22;38455;52.710;6.502;2023-03-01T04:28:08;-2.10;99.90
52555;DHT22;38455;52.710;6.502;2023-03-01T04:30:35;-2.20;99.90
52555;DHT22;38455;52.710;6.502;2023-03-01T04:33:08;-2.20;99.90
52555;DHT22;38455;52.710;6.502;2023-03-01T04:35:35;-2.20;99.90
52555;DHT22;38455;52.710;6.502;2023-03-01T04:38:01;-2.20;99.90
52555;DHT22;38455;52.710;6.502;2023-03-01T04:40:27;-2.30;99.90
52555;DHT22;38455;52.710;6.502;2023-03-01T04:42:53;-2.40;99.90
52555;DHT22;38455;52.710;6.502;2023-03-01T04:45:19;-2.40;99.90
52555;DHT22;38455;52.710;6.502;2023-03-01T04:47:46;-2.40;99.90
52555;DHT22;38455;52.710;6.502;2023-03-01T04:50:17;-2.40;99.90
52555;DHT22;38455;52.710;6.502;2023-03-01T04:52:46;-2.40;99.90
52555;DHT22;38455;52.710;6.502;2023-03-01T04:55:12;-2.50;99.90
52555;DHT22;38455;52.710;6.502;2023-03-01T04:57:38;-2.40;99.90
52555;DHT22;38455;52.710;6.502;2023-03-01T05:00:08;-2.40;99.90
52555;DHT22;38455;52.710;6.502;2023-03-01T05:02:57;-2.40;99.90
52555;DHT22;38455;52.710;6.502;2023-03-01T05:07:52;-2.50;99.90
52555;DHT22;38455;52.710;6.502;2023-03-01T05:10:18;-2.50;99.90
52555;DHT22;38455;52.710;6.502;2023-03-01T05:12:44;-2.60;99.90
52555;DHT22;38455;52.710;6.502;2023-03-01T05:15:10;-2.60;99.90
52555;DHT22;38455;52.710;6.502;2023-03-01T05:17:35;-2.60;99.90
52555;DHT22;38455;52.710;6.502;2023-03-01T05:20:01;-2.60;99.90
52555;DHT22;38455;52.710;6.502;2023-03-01T05:22:31;-2.60;99.90
52555;DHT22;38455;52.710;6.502;2023-03-01T05:24:57;-2.60;99.90
52555;DHT22;38455;52.710;6.502;2023-03-01T05:27:23;-2.60;99.90
52555;DHT22;38455;52.710;6.502;2023-03-01T05:29:48;-2.60;99.90
52555;DHT22;38455;52.710;6.502;2023-03-01T05:32:14;-2.60;99.90
52555;DHT22;38455;52.710;6.502;2023-03-01T05:34:41;-2.60;99.90
52555;DHT22;38455;52.710;6.502;2023-03-01T05:37:07;-2.70;99.90
52555;DHT22;38455;52.710;6.502;2023-03-01T05:39:33;-2.70;99.90
52555;DHT22;38455;52.710;6.502;2023-03-01T05:42:00;-2.70;99.90
52555;DHT22;38455;52.710;6.502;2023-03-01T05:44:29;-2.70;99.90
52555;DHT22;38455;52.710;6.502;2023-03-01T05:46:55;-2.70;99.90
52555;DHT22;38455;52.710;6.502;2023-03-01T05:49:22;-2.70;99.90
52555;DHT22;38455;52.710;6.502;2023-03-01T05:51:52;-2.70;99.90
52555;DHT22;38455;52.710;6.502;2023-03-01T05:54:19;-2.70;99.90
52555;DHT22;38455;52.710;6.502;2023-03-01T05:56:45;-2.70;99.90
52555;DHT22;38455;52.710;6.502;2023-03-01T05:59:11;-2.70;99.90
52555;DHT22;38455;52.710;6.502;2023-03-01T06:01:37;-2.70;99.90
52555;DHT22;38455;52.710;6.502;2023-03-01T06:04:04;-2.70;99.90
52555;DHT22;38455;52.710;6.502;2023-03-01T06:06:33;-2.60;99.90
52555;DHT22;38455;52.710;6.502;2023-03-01T06:08:58;-2.70;99.90
52555;DHT22;38455;52.710;6.502;2023-03-01T06:11:24;-2.60;99.90
52555;DHT22;38455;52.710;6.502;2023-03-01T06:13:50;-2.70;99.90
52555;DHT22;38455;52.710;6.502;2023-03-01T06:16:16;-2.70;99.90
52555;DHT22;38455;52.710;6.502;2023-03-01T06:18:41;-2.70;99.90
52555;DHT22;38455;52.710;6.502;2023-03-01T06:21:08;-2.70;99.90
52555;DHT22;38455;52.710;6.502;2023-03-01T06:23:34;-2.70;99.90
52555;DHT22;38455;52.710;6.502;2023-03-01T06:26:00;-2.80;99.90
52555;DHT22;38455;52.710;6.502;2023-03-01T06:28:30;-2.80;99.90
52555;DHT22;38455;52.710;6.502;2023-03-01T06:30:55;-2.80;99.90
52555;DHT22;38455;52.710;6.502;2023-03-01T06:33:21;-2.70;99.90
52555;DHT22;38455;52.710;6.502;2023-03-01T06:35:50;-2.70;99.90
52555;DHT22;38455;52.710;6.502;2023-03-01T06:38:15;-2.70;99.90
52555;DHT22;38455;52.710;6.502;2023-03-01T06:40:43;-2.70;99.90
52555;DHT22;38455;52.710;6.502;2023-03-01T06:43:09;-2.70;99.90
52555;DHT22;38455;52.710;6.502;2023-03-01T06:45:35;-2.70;99.90
52555;DHT22;38455;52.710;6.502;2023-03-01T06:48:07;-2.70;99.90
52555;DHT22;38455;52.710;6.502;2023-03-01T06:50:34;-2.60;99.90
52555;DHT22;38455;52.710;6.502;2023-03-01T06:53:00;-2.60;99.90
52555;DHT22;38455;52.710;6.502;2023-03-01T06:55:26;-2.50;99.90
52555;DHT22;38455;52.710;6.502;2023-03-01T06:57:56;-2.50;99.90
52555;DHT22;38455;52.710;6.502;2023-03-01T07:00:22;-2.40;99.90
52555;DHT22;38455;52.710;6.502;2023-03-01T07:02:48;-2.30;99.90
52555;DHT22;38455;52.710;6.502;2023-03-01T07:05:14;-2.20;99.90
52555;DHT22;38455;52.710;6.502;2023-03-01T07:07:39;-2.10;99.90
52555;DHT22;38455;52.710;6.502;2023-03-01T07:10:06;-2.00;99.90
52555;DHT22;38455;52.710;6.502;2023-03-01T07:12:32;-1.90;99.90
52555;DHT22;38455;52.710;6.502;2023-03-01T07:14:57;-1.90;99.90
52555;DHT22;38455;52.710;6.502;2023-03-01T07:17:23;-1.80;99.90
52555;DHT22;38455;52.710;6.502;2023-03-01T07:19:49;-1.70;99.90
52555;DHT22;38455;52.710;6.502;2023-03-01T07:22:14;-1.70;99.90
52555;DHT22;38455;52.710;6.502;2023-03-01T07:24:41;-1.60;99.90
52555;DHT22;38455;52.710;6.502;2023-03-01T07:27:07;-1.50;99.90
52555;DHT22;38455;52.710;6.502;2023-03-01T07:29:32;-1.40;99.90
52555;DHT22;38455;52.710;6.502;2023-03-01T07:31:58;-0.90;99.90
52555;DHT22;38455;52.710;6.502;2023-03-01T07:34:24;0.00;99.90
52555;DHT22;38455;52.710;6.502;2023-03-01T07:36:50;1.10;99.90
52555;DHT22;38455;52.710;6.502;2023-03-01T07:39:15;2.00;99.90
52555;DHT22;38455;52.710;6.502;2023-03-01T07:41:41;3.00;99.90
52555;DHT22;38455;52.710;6.502;2023-03-01T07:44:07;4.00;99.90
52555;DHT22;38455;52.710;6.502;2023-03-01T07:46:33;4.50;99.90
52555;DHT22;38455;52.710;6.502;2023-03-01T07:48:58;5.10;99.90
52555;DHT22;38455;52.710;6.502;2023-03-01T07:51:24;5.60;99.90
52555;DHT22;38455;52.710;6.502;2023-03-01T07:53:50;6.00;99.90
52555;DHT22;38455;52.710;6.502;2023-03-01T07:56:16;6.60;99.90
52555;DHT22;38455;52.710;6.502;2023-03-01T07:58:44;7.10;99.90
52555;DHT22;38455;52.710;6.502;2023-03-01T08:01:12;7.30;99.90
52555;DHT22;38455;52.710;6.502;2023-03-01T08:03:38;7.90;99.90
52555;DHT22;38455;52.710;6.502;2023-03-01T08:06:06;8.10;99.90
52555;DHT22;38455;52.710;6.502;2023-03-01T08:08:33;8.30;99.90
52555;DHT22;38455;52.710;6.502;2023-03-01T08:10:59;9.10;99.90
52555;DHT22;38455;52.710;6.502;2023-03-01T08:13:26;9.50;99.90
52555;DHT22;38455;52.710;6.502;2023-03-01T08:15:52;9.40;99.90
52555;DHT22;38455;52.710;6.502;2023-03-01T08:18:19;10.00;99.90
52555;DHT22;38455;52.710;6.502;2023-03-01T08:20:45;10.30;99.90
52555;DHT22;38455;52.710;6.502;2023-03-01T08:23:11;10.40;99.80
52555;DHT22;38455;52.710;6.502;2023-03-01T08:25:37;10.70;98.70
52555;DHT22;38455;52.710;6.502;2023-03-01T08:28:03;11.20;98.80
52555;DHT22;38455;52.710;6.502;2023-03-01T08:30:29;11.50;98.70
52555;DHT22;38455;52.710;6.502;2023-03-01T08:32:55;11.50;98.40
52555;DHT22;38455;52.710;6.502;2023-03-01T08:35:21;11.80;97.60
52555;DHT22;38455;52.710;6.502;2023-03-01T08:37:47;12.30;95.80
52555;DHT22;38455;52.710;6.502;2023-03-01T08:40:13;12.80;94.70
52555;DHT22;38455;52.710;6.502;2023-03-01T08:42:40;12.50;93.20
52555;DHT22;38455;52.710;6.502;2023-03-01T08:45:08;12.70;92.20
52555;DHT22;38455;52.710;6.502;2023-03-01T08:47:34;13.00;91.60
52555;DHT22;38455;52.710;6.502;2023-03-01T08:50:00;13.00;85.70
52555;DHT22;38455;52.710;6.502;2023-03-01T08:52:26;13.10;84.90
52555;DHT22;38455;52.710;6.502;2023-03-01T08:54:52;13.50;85.20
52555;DHT22;38455;52.710;6.502;2023-03-01T08:57:19;13.40;83.40
52555;DHT22;38455;52.710;6.502;2023-03-01T08:59:44;13.80;83.00
52555;DHT22;38455;52.710;6.502;2023-03-01T09:02:13;14.00;82.30
52555;DHT22;38455;52.710;6.502;2023-03-01T09:04:39;14.50;81.00
52555;DHT22;38455;52.710;6.502;2023-03-01T09:07:05;14.50;80.30
52555;DHT22;38455;52.710;6.502;2023-03-01T09:09:31;14.80;78.80
52555;DHT22;38455;52.710;6.502;2023-03-01T09:11:57;14.90;79.80
52555;DHT22;38455;52.710;6.502;2023-03-01T09:14:22;15.20;78.90
52555;DHT22;38455;52.710;6.502;2023-03-01T09:16:48;14.90;76.10
52555;DHT22;38455;52.710;6.502;2023-03-01T09:19:14;14.90;72.30
52555;DHT22;38455;52.710;6.502;2023-03-01T09:21:40;14.50;70.80
52555;DHT22;38455;52.710;6.502;2023-03-01T09:24:11;14.60;71.10
52555;DHT22;38455;52.710;6.502;2023-03-01T09:26:38;15.00;69.70
52555;DHT22;38455;52.710;6.502;2023-03-01T09:29:04;15.50;70.20
52555;DHT22;38455;52.710;6.502;2023-03-01T09:31:29;15.80;68.40
52555;DHT22;38455;52.710;6.502;2023-03-01T09:33:55;16.10;67.60
52555;DHT22;38455;52.710;6.502;2023-03-01T09:36:22;16.10;66.50
52555;DHT22;38455;52.710;6.502;2023-03-01T09:38:49;16.30;65.00
52555;DHT22;38455;52.710;6.502;2023-03-01T09:44:24;15.80;63.60
52555;DHT22;38455;52.710;6.502;2023-03-01T09:46:52;15.80;61.20
52555;DHT22;38455;52.710;6.502;2023-03-01T09:49:21;16.20;64.00
52555;DHT22;38455;52.710;6.502;2023-03-01T09:51:58;16.40;62.40
52555;DHT22;38455;52.710;6.502;2023-03-01T09:54:24;16.00;58.90
52555;DHT22;38455;52.710;6.502;2023-03-01T09:57:20;16.20;60.50
52555;DHT22;38455;52.710;6.502;2023-03-01T10:00:03;16.10;57.10
52555;DHT22;38455;52.710;6.502;2023-03-01T10:02:57;15.80;58.50
52555;DHT22;38455;52.710;6.502;2023-03-01T10:10:33;16.20;58.40
52555;DHT22;38455;52.710;6.502;2023-03-01T10:13:07;15.70;55.80
52555;DHT22;38455;52.710;6.502;2023-03-01T10:15:41;16.10;57.90
52555;DHT22;38455;52.710;6.502;2023-03-01T10:18:18;15.60;55.70
52555;DHT22;38455;52.710;6.502;2023-03-01T10:20:59;16.40;56.20
52555;DHT22;38455;52.710;6.502;2023-03-01T10:23:27;16.60;55.70
52555;DHT22;38455;52.710;6.502;2023-03-01T10:28:50;16.70;53.80
52555;DHT22;38455;52.710;6.502;2023-03-01T10:31:23;17.10;55.10
52555;DHT22;38455;52.710;6.502;2023-03-01T10:33:53;17.00;53.60
52555;DHT22;38455;52.710;6.502;2023-03-01T10:36:21;17.00;54.30
52555;DHT22;38455;52.710;6.502;2023-03-01T10:38:57;17.10;54.60
52555;DHT22;38455;52.710;6.502;2023-03-01T10:41:24;17.50;53.70
52555;DHT22;38455;52.710;6.502;2023-03-01T10:43:54;17.60;52.10
52555;DHT22;38455;52.710;6.502;2023-03-01T10:46:23;17.60;53.10
52555;DHT22;38455;52.710;6.502;2023-03-01T10:49:16;17.10;53.40
52555;DHT22;38455;52.710;6.502;2023-03-01T10:51:44;17.80;53.50
52555;DHT22;38455;52.710;6.502;2023-03-01T10:54:18;17.60;53.20
52555;DHT22;38455;52.710;6.502;2023-03-01T10:56:52;16.60;52.40
52555;DHT22;38455;52.710;6.502;2023-03-01T10:59:28;16.50;53.20
52555;DHT22;38455;52.710;6.502;2023-03-01T11:04:35;17.20;53.40
52555;DHT22;38455;52.710;6.502;2023-03-01T11:07:01;16.70;54.20
52555;DHT22;38455;52.710;6.502;2023-03-01T11:09:31;16.90;53.80
52555;DHT22;38455;52.710;6.502;2023-03-01T11:12:04;17.30;52.90
52555;DHT22;38455;52.710;6.502;2023-03-01T11:14:36;17.40;54.00
52555;DHT22;38455;52.710;6.502;2023-03-01T11:17:12;17.40;52.70
52555;DHT22;38455;52.710;6.502;2023-03-01T11:19:40;16.80;51.40
52555;DHT22;38455;52.710;6.502;2023-03-01T11:27:20;17.40;53.10
52555;DHT22;38455;52.710;6.502;2023-03-01T11:35:25;17.30;52.40
52555;DHT22;38455;52.710;6.502;2023-03-01T11:38:25;17.10;52.70
52555;DHT22;38455;52.710;6.502;2023-03-01T11:41:17;16.50;51.70
52555;DHT22;38455;52.710;6.502;2023-03-01T12:19:58;19.10;50.80
52555;DHT22;38455;52.710;6.502;2023-03-01T12:22:53;19.30;51.40
52555;DHT22;38455;52.710;6.502;2023-03-01T12:25:34;18.50;48.90
52555;DHT22;38455;52.710;6.502;2023-03-01T12:31:11;17.60;50.30
52555;DHT22;38455;52.710;6.502;2023-03-01T12:38:55;17.40;50.10
52555;DHT22;38455;52.710;6.502;2023-03-01T12:47:07;16.50;51.10
52555;DHT22;38455;52.710;6.502;2023-03-01T12:49:38;15.90;51.70
52555;DHT22;38455;52.710;6.502;2023-03-01T12:52:20;16.70;52.80
52555;DHT22;38455;52.710;6.502;2023-03-01T12:54:50;17.30;52.00
52555;DHT22;38455;52.710;6.502;2023-03-01T12:57:31;17.20;52.40
52555;DHT22;38455;52.710;6.502;2023-03-01T13:02:48;14.60;53.70
52555;DHT22;38455;52.710;6.502;2023-03-01T13:05:47;13.70;56.00
52555;DHT22;38455;52.710;6.502;2023-03-01T13:08:30;13.30;57.50
52555;DHT22;38455;52.710;6.502;2023-03-01T13:11:04;12.40;59.00
52555;DHT22;38455;52.710;6.502;2023-03-01T13:13:31;12.30;60.10
52555;DHT22;38455;52.710;6.502;2023-03-01T13:15:57;12.30;60.70
52555;DHT22;38455;52.710;6.502;2023-03-01T13:18:42;12.40;60.60
52555;DHT22;38455;52.710;6.502;2023-03-01T13:21:08;11.90;60.50
52555;DHT22;38455;52.710;6.502;2023-03-01T13:23:37;11.60;61.40
52555;DHT22;38455;52.710;6.502;2023-03-01T13:26:11;11.60;61.70
52555;DHT22;38455;52.710;6.502;2023-03-01T13:28:47;11.40;62.20
52555;DHT22;38455;52.710;6.502;2023-03-01T13:33:49;11.20;63.80
52555;DHT22;38455;52.710;6.502;2023-03-01T13:44:31;10.60;64.90
52555;DHT22;38455;52.710;6.502;2023-03-01T13:57:42;10.10;65.70
52555;DHT22;38455;52.710;6.502;2023-03-01T14:00:38;10.20;65.70
52555;DHT22;38455;52.710;6.502;2023-03-01T14:03:10;10.20;66.10
52555;DHT22;38455;52.710;6.502;2023-03-01T14:05:38;10.10;65.90
52555;DHT22;38455;52.710;6.502;2023-03-01T14:08:04;10.10;66.00
52555;DHT22;38455;52.710;6.502;2023-03-01T14:10:44;10.30;65.60
52555;DHT22;38455;52.710;6.502;2023-03-01T14:13:35;10.80;64.00
52555;DHT22;38455;52.710;6.502;2023-03-01T14:16:19;11.40;62.60
52555;DHT22;38455;52.710;6.502;2023-03-01T14:18:59;11.60;61.80
52555;DHT22;38455;52.710;6.502;2023-03-01T14:21:27;11.60;61.60
52555;DHT22;38455;52.710;6.502;2023-03-01T14:23:54;11.60;62.00
52555;DHT22;38455;52.710;6.502;2023-03-01T14:26:21;11.40;61.10
52555;DHT22;38455;52.710;6.502;2023-03-01T14:28:48;11.10;61.20
52555;DHT22;38455;52.710;6.502;2023-03-01T14:31:39;11.20;62.10
52555;DHT22;38455;52.710;6.502;2023-03-01T14:34:05;11.50;62.80
52555;DHT22;38455;52.710;6.502;2023-03-01T14:36:33;11.80;61.80
52555;DHT22;38455;52.710;6.502;2023-03-01T14:39:00;12.20;62.30
52555;DHT22;38455;52.710;6.502;2023-03-01T14:41:33;11.70;62.10
52555;DHT22;38455;52.710;6.502;2023-03-01T14:44:19;11.50;62.20
52555;DHT22;38455;52.710;6.502;2023-03-01T14:46:55;11.50;62.80
52555;DHT22;38455;52.710;6.502;2023-03-01T14:49:31;11.40;62.90
52555;DHT22;38455;52.710;6.502;2023-03-01T14:52:06;11.30;63.40
52555;DHT22;38455;52.710;6.502;2023-03-01T14:54:47;11.10;64.50
52555;DHT22;38455;52.710;6.502;2023-03-01T14:57:19;10.80;65.20
52555;DHT22;38455;52.710;6.502;2023-03-01T14:59:45;10.60;65.80
52555;DHT22;38455;52.710;6.502;2023-03-01T15:02:18;10.30;66.50
52555;DHT22;38455;52.710;6.502;2023-03-01T15:04:54;10.00;67.40
52555;DHT22;38455;52.710;6.502;2023-03-01T15:07:25;10.00;68.10
52555;DHT22;38455;52.710;6.502;2023-03-01T15:09:52;9.80;68.50
52555;DHT22;38455;52.710;6.502;2023-03-01T15:14:53;9.40;70.20
52555;DHT22;38455;52.710;6.502;2023-03-01T15:17:36;9.40;70.40
52555;DHT22;38455;52.710;6.502;2023-03-01T15:20:07;9.40;71.00
52555;DHT22;38455;52.710;6.502;2023-03-01T15:22:32;9.30;70.90
52555;DHT22;38455;52.710;6.502;2023-03-01T15:24:58;9.20;71.70
52555;DHT22;38455;52.710;6.502;2023-03-01T15:27:25;9.10;71.70
52555;DHT22;38455;52.710;6.502;2023-03-01T15:29:59;9.00;72.20
52555;DHT22;38455;52.710;6.502;2023-03-01T15:32:36;9.00;73.50
52555;DHT22;38455;52.710;6.502;2023-03-01T15:35:40;9.00;74.30
52555;DHT22;38455;52.710;6.502;2023-03-01T15:41:03;8.70;76.00
52555;DHT22;38455;52.710;6.502;2023-03-01T15:43:41;8.60;75.40
52555;DHT22;38455;52.710;6.502;2023-03-01T15:46:17;8.60;76.00
52555;DHT22;38455;52.710;6.502;2023-03-01T15:48:50;8.60;76.40
52555;DHT22;38455;52.710;6.502;2023-03-01T15:51:21;8.60;76.30
52555;DHT22;38455;52.710;6.502;2023-03-01T15:53:51;8.50;76.70
52555;DHT22;38455;52.710;6.502;2023-03-01T15:56:18;8.50;77.20
52555;DHT22;38455;52.710;6.502;2023-03-01T15:58:44;8.50;77.40
52555;DHT22;38455;52.710;6.502;2023-03-01T16:01:16;8.50;77.90
52555;DHT22;38455;52.710;6.502;2023-03-01T16:03:42;8.40;78.20
52555;DHT22;38455;52.710;6.502;2023-03-01T16:06:12;8.30;78.70
52555;DHT22;38455;52.710;6.502;2023-03-01T16:08:38;8.20;79.40
52555;DHT22;38455;52.710;6.502;2023-03-01T16:11:18;8.30;80.10
52555;DHT22;38455;52.710;6.502;2023-03-01T16:13:44;8.20;81.90
52555;DHT22;38455;52.710;6.502;2023-03-01T16:16:12;8.20;81.50
52555;DHT22;38455;52.710;6.502;2023-03-01T16:18:40;8.10;82.60
52555;DHT22;38455;52.710;6.502;2023-03-01T16:21:06;8.10;83.60
52555;DHT22;38455;52.710;6.502;2023-03-01T16:23:31;8.00;84.00
52555;DHT22;38455;52.710;6.502;2023-03-01T16:26:01;8.00;85.30
52555;DHT22;38455;52.710;6.502;2023-03-01T16:28:26;8.10;85.20
52555;DHT22;38455;52.710;6.502;2023-03-01T16:30:52;8.00;86.00
52555;DHT22;38455;52.710;6.502;2023-03-01T16:33:18;8.00;86.30
52555;DHT22;38455;52.710;6.502;2023-03-01T16:35:43;8.00;87.60
52555;DHT22;38455;52.710;6.502;2023-03-01T16:38:10;8.00;88.10
52555;DHT22;38455;52.710;6.502;2023-03-01T16:40:35;8.00;88.90
52555;DHT22;38455;52.710;6.502;2023-03-01T16:43:01;7.90;89.60
52555;DHT22;38455;52.710;6.502;2023-03-01T16:45:29;7.80;90.40
52555;DHT22;38455;52.710;6.502;2023-03-01T16:47:58;7.70;91.20
52555;DHT22;38455;52.710;6.502;2023-03-01T16:50:24;7.60;91.70
52555;DHT22;38455;52.710;6.502;2023-03-01T16:52:49;7.50;92.70
52555;DHT22;38455;52.710;6.502;2023-03-01T16:55:15;7.50;93.50
52555;DHT22;38455;52.710;6.502;2023-03-01T16:57:41;7.40;94.20
52555;DHT22;38455;52.710;6.502;2023-03-01T17:00:08;7.40;94.90
52555;DHT22;38455;52.710;6.502;2023-03-01T17:02:38;7.20;95.70
52555;DHT22;38455;52.710;6.502;2023-03-01T17:05:05;7.20;96.20
52555;DHT22;38455;52.710;6.502;2023-03-01T17:07:31;7.10;96.80
52555;DHT22;38455;52.710;6.502;2023-03-01T17:10:02;7.00;97.70
52555;DHT22;38455;52.710;6.502;2023-03-01T17:12:28;6.90;98.40
52555;DHT22;38455;52.710;6.502;2023-03-01T17:14:54;6.80;99.40
52555;DHT22;38455;52.710;6.502;2023-03-01T17:17:20;6.80;99.90
52555;DHT22;38455;52.710;6.502;2023-03-01T17:19:46;6.70;99.90
52555;DHT22;38455;52.710;6.502;2023-03-01T17:22:12;6.60;99.90
52555;DHT22;38455;52.710;6.502;2023-03-01T17:24:39;6.60;99.90
52555;DHT22;38455;52.710;6.502;2023-03-01T17:27:05;6.50;99.90
52555;DHT22;38455;52.710;6.502;2023-03-01T17:29:32;6.40;99.90
52555;DHT22;38455;52.710;6.502;2023-03-01T17:31:57;6.40;99.90
52555;DHT22;38455;52.710;6.502;2023-03-01T17:34:24;6.40;99.90
52555;DHT22;38455;52.710;6.502;2023-03-01T17:36:51;6.30;99.90
52555;DHT22;38455;52.710;6.502;2023-03-01T17:39:19;6.30;99.90
52555;DHT22;38455;52.710;6.502;2023-03-01T17:41:50;6.30;99.90
52555;DHT22;38455;52.710;6.502;2023-03-01T17:44:16;6.10;99.90
52555;DHT22;38455;52.710;6.502;2023-03-01T17:46:42;6.10;99.90
52555;DHT22;38455;52.710;6.502;2023-03-01T17:49:08;5.90;99.90
52555;DHT22;38455;52.710;6.502;2023-03-01T17:51:33;5.90;99.90
52555;DHT22;38455;52.710;6.502;2023-03-01T17:53:59;5.90;99.90